sensor_id;sensor_type;location;lat;lon;timestamp;P1;durP1;ratioP1;P2;durP2;ratioP2
25163;SDS011;13440;50.860;13.662;2023-03-03T00:01:34;37.58;;;20.27;;
25163;SDS011;13440;50.860;13.662;2023-03-03T00:03:59;38.70;;;20.13;;
25163;SDS011;13440;50.860;13.662;2023-03-03T00:06:24;41.83;;;20.45;;
25163;SDS011;13440;50.860;13.662;2023-03-03T00:08:49;36.95;;;20.20;;
25163;SDS011;13440;50.860;13.662;2023-03-03T00:11:15;40.50;;;20.60;;
25163;SDS011;13440;50.860;13.662;2023-03-03T00:13:48;35.35;;;20.10;;
25163;SDS011;13440;50.860;13.662;2023-03-03T00:18:45;38.58;;;20.33;;
25163;SDS011;13440;50.860;13.662;2023-03-03T00:21:17;37.20;;;19.17;;
25163;SDS011;13440;50.860;13.662;2023-03-03T00:23:44;41.05;;;21.10;;
25163;SDS011;13440;50.860;13.662;2023-03-03T00:26:22;36.40;;;20.30;;
25163;SDS011;13440;50.860;13.662;2023-03-03T00:28:52;37.25;;;19.08;;
25163;SDS011;13440;50.860;13.662;2023-03-03T00:31:19;38.97;;;19.58;;
25163;SDS011;13440;50.860;13.662;2023-03-03T00:33:46;36.47;;;19.58;;
25163;SDS011;13440;50.860;13.662;2023-03-03T00:38:40;40.60;;;20.67;;
25163;SDS011;13440;50.860;13.662;2023-03-03T00:41:19;35.65;;;19.88;;
25163;SDS011;13440;50.860;13.662;2023-03-03T00:43:46;41.80;;;20.95;;
25163;SDS011;13440;50.860;13.662;2023-03-03T00:46:14;37.78;;;19.95;;
25163;SDS011;13440;50.860;13.662;2023-03-03T00:48:41;37.38;;;19.73;;
25163;SDS011;13440;50.860;13.662;2023-03-03T00:51:26;38.58;;;19.80;;
25163;SDS011;13440;50.860;13.662;2023-03-03T00:53:51;34.80;;;18.27;;
25163;SDS011;13440;50.860;13.662;2023-03-03T00:56:17;35.58;;;19.38;;
25163;SDS011;13440;50.860;13.662;2023-03-03T00:58:42;38.60;;;19.27;;
25163;SDS011;13440;50.860;13.662;2023-03-03T01:01:10;35.75;;;18.25;;
25163;SDS011;13440;50.860;13.662;2023-03-03T01:03:41;34.95;;;18.00;;
25163;SDS011;13440;50.860;13.662;2023-03-03T01:06:07;40.00;;;19.23;;
25163;SDS011;13440;50.860;13.662;2023-03-03T01:08:33;36.95;;;19.30;;
25163;SDS011;13440;50.860;13.662;2023-03-03T01:11:03;34.83;;;18.65;;
25163;SDS011;13440;50.860;13.662;2023-03-03T01:13:30;34.47;;;18.17;;
25163;SDS011;13440;50.860;13.662;2023-03-03T01:15:56;32.92;;;17.92;;
25163;SDS011;13440;50.860;13.662;2023-03-03T01:18:21;36.78;;;18.00;;
25163;SDS011;13440;50.860;13.662;2023-03-03T01:20:46;34.00;;;17.83;;
25163;SDS011;13440;50.860;13.662;2023-03-03T01:23:11;34.87;;;18.37;;
25163;SDS011;13440;50.860;13.662;2023-03-03T01:25:37;33.35;;;17.23;;
25163;SDS011;13440;50.860;13.662;2023-03-03T01:28:04;35.38;;;18.17;;
25163;SDS011;13440;50.860;13.662;2023-03-03T01:30:29;35.67;;;18.98;;
25163;SDS011;13440;50.860;13.662;2023-03-03T01:32:55;34.78;;;18.75;;
25163;SDS011;13440;50.860;13.662;2023-03-03T01:35:20;34.60;;;19.42;;
25163;SDS011;13440;50.860;13.662;2023-03-03T01:37:46;36.00;;;19.50;;
25163;SDS011;13440;50.860;13.662;2023-03-03T01:40:13;36.10;;;17.85;;
25163;SDS011;13440;50.860;13.662;2023-03-03T01:42:39;33.70;;;18.00;;
25163;SDS011;13440;50.860;13.662;2023-03-03T01:47:50;37.10;;;19.15;;
25163;SDS011;13440;50.860;13.662;2023-03-03T01:50:20;34.53;;;18.15;;
25163;SDS011;13440;50.860;13.662;2023-03-03T01:52:50;39.20;;;20.33;;
25163;SDS011;13440;50.860;13.662;2023-03-03T01:55:22;35.90;;;19.45;;
25163;SDS011;13440;50.860;13.662;2023-03-03T02:00:14;37.50;;;19.50;;
25163;SDS011;13440;50.860;13.662;2023-03-03T02:02:40;46.13;;;22.40;;
25163;SDS011;13440;50.860;13.662;2023-03-03T02:05:06;53.65;;;23.20;;
25163;SDS011;13440;50.860;13.662;2023-03-03T02:07:32;58.35;;;25.90;;
25163;SDS011;13440;50.860;13.662;2023-03-03T02:09:58;59.00;;;26.98;;
25163;SDS011;13440;50.860;13.662;2023-03-03T02:12:29;53.25;;;25.20;;
25163;SDS011;13440;50.860;13.662;2023-03-03T02:14:55;56.78;;;25.45;;
25163;SDS011;13440;50.860;13.662;2023-03-03T02:17:20;76.80;;;29.67;;
25163;SDS011;13440;50.860;13.662;2023-03-03T02:19:51;106.40;;;34.38;;
25163;SDS011;13440;50.860;13.662;2023-03-03T02:22:20;110.75;;;35.53;;
25163;SDS011;13440;50.860;13.662;2023-03-03T02:24:50;101.22;;;36.53;;
25163;SDS011;13440;50.860;13.662;2023-03-03T02:27:18;108.82;;;39.80;;
25163;SDS011;13440;50.860;13.662;2023-03-03T02:29:44;136.85;;;40.47;;
25163;SDS011;13440;50.860;13.662;2023-03-03T02:32:10;117.60;;;40.47;;
25163;SDS011;13440;50.860;13.662;2023-03-03T02:34:53;104.18;;;39.28;;
25163;SDS011;13440;50.860;13.662;2023-03-03T02:37:19;110.97;;;40.40;;
25163;SDS011;13440;50.860;13.662;2023-03-03T02:39:44;109.47;;;40.05;;
25163;SDS011;13440;50.860;13.662;2023-03-03T02:42:19;92.72;;;38.50;;
25163;SDS011;13440;50.860;13.662;2023-03-03T02:44:49;84.75;;;35.95;;
25163;SDS011;13440;50.860;13.662;2023-03-03T02:47:14;86.55;;;36.92;;
25163;SDS011;13440;50.860;13.662;2023-03-03T02:49:40;84.88;;;37.58;;
25163;SDS011;13440;50.860;13.662;2023-03-03T02:52:07;80.70;;;36.80;;
25163;SDS011;13440;50.860;13.662;2023-03-03T02:54:39;78.15;;;35.00;;
25163;SDS011;13440;50.860;13.662;2023-03-03T02:57:04;74.07;;;35.05;;
25163;SDS011;13440;50.860;13.662;2023-03-03T02:59:30;78.13;;;34.45;;
25163;SDS011;13440;50.860;13.662;2023-03-03T03:01:59;71.22;;;33.85;;
25163;SDS011;13440;50.860;13.662;2023-03-03T03:04:25;81.40;;;34.22;;
25163;SDS011;13440;50.860;13.662;2023-03-03T03:06:52;72.80;;;32.00;;
25163;SDS011;13440;50.860;13.662;2023-03-03T03:09:17;67.82;;;32.90;;
25163;SDS011;13440;50.860;13.662;2023-03-03T03:11:44;77.82;;;34.58;;
25163;SDS011;13440;50.860;13.662;2023-03-03T03:14:10;71.68;;;32.00;;
25163;SDS011;13440;50.860;13.662;2023-03-03T03:16:36;71.32;;;31.73;;
25163;SDS011;13440;50.860;13.662;2023-03-03T03:19:03;65.00;;;30.30;;
25163;SDS011;13440;50.860;13.662;2023-03-03T03:21:29;65.30;;;31.40;;
25163;SDS011;13440;50.860;13.662;2023-03-03T03:23:55;63.70;;;30.00;;
25163;SDS011;13440;50.860;13.662;2023-03-03T03:26:21;62.80;;;29.50;;
25163;SDS011;13440;50.860;13.662;2023-03-03T03:28:48;69.35;;;30.48;;
25163;SDS011;13440;50.860;13.662;2023-03-03T03:31:13;66.97;;;31.92;;
25163;SDS011;13440;50.860;13.662;2023-03-03T03:33:39;64.03;;;31.42;;
25163;SDS011;13440;50.860;13.662;2023-03-03T03:36:05;63.70;;;29.85;;
25163;SDS011;13440;50.860;13.662;2023-03-03T03:38:31;65.00;;;30.83;;
25163;SDS011;13440;50.860;13.662;2023-03-03T03:40:57;63.15;;;30.42;;
25163;SDS011;13440;50.860;13.662;2023-03-03T03:43:22;66.63;;;32.15;;
25163;SDS011;13440;50.860;13.662;2023-03-03T03:45:48;71.13;;;33.55;;
25163;SDS011;13440;50.860;13.662;2023-03-03T03:48:14;64.93;;;31.67;;
25163;SDS011;13440;50.860;13.662;2023-03-03T03:50:41;69.95;;;32.42;;
25163;SDS011;13440;50.860;13.662;2023-03-03T03:53:07;74.30;;;33.65;;
25163;SDS011;13440;50.860;13.662;2023-03-03T03:55:33;69.97;;;33.00;;
25163;SDS011;13440;50.860;13.662;2023-03-03T03:57:58;63.92;;;30.90;;
25163;SDS011;13440;50.860;13.662;2023-03-03T04:00:24;63.90;;;32.15;;
25163;SDS011;13440;50.860;13.662;2023-03-03T04:02:54;60.00;;;31.30;;
25163;SDS011;13440;50.860;13.662;2023-03-03T04:05:20;61.47;;;30.25;;
25163;SDS011;13440;50.860;13.662;2023-03-03T04:07:45;57.85;;;29.95;;
25163;SDS011;13440;50.860;13.662;2023-03-03T04:10:11;58.75;;;30.17;;
25163;SDS011;13440;50.860;13.662;2023-03-03T04:12:37;60.35;;;30.88;;
25163;SDS011;13440;50.860;13.662;2023-03-03T04:15:09;77.75;;;32.92;;
25163;SDS011;13440;50.860;13.662;2023-03-03T04:17:36;85.28;;;34.78;;
25163;SDS011;13440;50.860;13.662;2023-03-03T04:20:01;84.05;;;36.10;;
25163;SDS011;13440;50.860;13.662;2023-03-03T04:22:28;79.13;;;34.28;;
25163;SDS011;13440;50.860;13.662;2023-03-03T04:24:54;77.22;;;34.47;;
25163;SDS011;13440;50.860;13.662;2023-03-03T04:27:19;81.22;;;34.22;;
25163;SDS011;13440;50.860;13.662;2023-03-03T04:29:45;74.00;;;32.72;;
25163;SDS011;13440;50.860;13.662;2023-03-03T04:32:10;73.13;;;32.50;;
25163;SDS011;13440;50.860;13.662;2023-03-03T04:34:35;77.55;;;33.83;;
25163;SDS011;13440;50.860;13.662;2023-03-03T04:37:01;69.63;;;32.38;;
25163;SDS011;13440;50.860;13.662;2023-03-03T04:39:27;67.28;;;31.00;;
25163;SDS011;13440;50.860;13.662;2023-03-03T04:41:53;68.53;;;32.90;;
25163;SDS011;13440;50.860;13.662;2023-03-03T04:44:19;60.70;;;29.80;;
25163;SDS011;13440;50.860;13.662;2023-03-03T04:46:44;71.38;;;33.22;;
25163;SDS011;13440;50.860;13.662;2023-03-03T04:49:10;74.15;;;33.28;;
25163;SDS011;13440;50.860;13.662;2023-03-03T04:51:35;73.15;;;33.17;;
25163;SDS011;13440;50.860;13.662;2023-03-03T04:54:01;73.68;;;33.67;;
25163;SDS011;13440;50.860;13.662;2023-03-03T04:56:26;70.10;;;32.53;;
25163;SDS011;13440;50.860;13.662;2023-03-03T04:58:53;70.97;;;32.58;;
25163;SDS011;13440;50.860;13.662;2023-03-03T05:01:18;68.60;;;32.10;;
25163;SDS011;13440;50.860;13.662;2023-03-03T05:03:44;68.68;;;32.95;;
25163;SDS011;13440;50.860;13.662;2023-03-03T05:06:10;72.40;;;32.00;;
25163;SDS011;13440;50.860;13.662;2023-03-03T05:08:35;70.15;;;32.53;;
25163;SDS011;13440;50.860;13.662;2023-03-03T05:11:00;71.82;;;31.50;;
25163;SDS011;13440;50.860;13.662;2023-03-03T05:13:26;75.20;;;34.50;;
25163;SDS011;13440;50.860;13.662;2023-03-03T05:15:52;77.22;;;34.58;;
25163;SDS011;13440;50.860;13.662;2023-03-03T05:18:20;81.53;;;35.15;;
25163;SDS011;13440;50.860;13.662;2023-03-03T05:20:45;76.30;;;33.53;;
25163;SDS011;13440;50.860;13.662;2023-03-03T05:23:10;78.88;;;34.70;;
25163;SDS011;13440;50.860;13.662;2023-03-03T05:25:36;82.03;;;35.10;;
25163;SDS011;13440;50.860;13.662;2023-03-03T05:28:02;78.68;;;33.88;;
25163;SDS011;13440;50.860;13.662;2023-03-03T05:30:28;78.55;;;34.90;;
25163;SDS011;13440;50.860;13.662;2023-03-03T05:32:53;84.38;;;36.83;;
25163;SDS011;13440;50.860;13.662;2023-03-03T05:35:19;87.40;;;35.42;;
25163;SDS011;13440;50.860;13.662;2023-03-03T05:37:44;87.10;;;34.92;;
25163;SDS011;13440;50.860;13.662;2023-03-03T05:40:12;89.18;;;35.95;;
25163;SDS011;13440;50.860;13.662;2023-03-03T05:42:38;100.03;;;38.42;;
25163;SDS011;13440;50.860;13.662;2023-03-03T05:45:03;90.53;;;35.97;;
25163;SDS011;13440;50.860;13.662;2023-03-03T05:47:28;95.07;;;38.38;;
25163;SDS011;13440;50.860;13.662;2023-03-03T05:49:53;106.13;;;39.75;;
25163;SDS011;13440;50.860;13.662;2023-03-03T05:52:19;108.33;;;39.13;;
25163;SDS011;13440;50.860;13.662;2023-03-03T05:54:44;103.18;;;39.05;;
25163;SDS011;13440;50.860;13.662;2023-03-03T05:57:09;105.18;;;39.78;;
25163;SDS011;13440;50.860;13.662;2023-03-03T05:59:35;110.72;;;40.22;;
25163;SDS011;13440;50.860;13.662;2023-03-03T06:02:00;110.60;;;40.57;;
25163;SDS011;13440;50.860;13.662;2023-03-03T06:04:25;112.05;;;40.50;;
25163;SDS011;13440;50.860;13.662;2023-03-03T06:06:50;112.17;;;40.67;;
25163;SDS011;13440;50.860;13.662;2023-03-03T06:09:15;118.83;;;42.33;;
25163;SDS011;13440;50.860;13.662;2023-03-03T06:11:43;116.00;;;40.60;;
25163;SDS011;13440;50.860;13.662;2023-03-03T06:14:08;116.43;;;41.28;;
25163;SDS011;13440;50.860;13.662;2023-03-03T06:16:33;102.78;;;39.63;;
25163;SDS011;13440;50.860;13.662;2023-03-03T06:18:58;104.55;;;40.40;;
25163;SDS011;13440;50.860;13.662;2023-03-03T06:21:25;100.35;;;38.63;;
25163;SDS011;13440;50.860;13.662;2023-03-03T06:23:50;99.05;;;38.72;;
25163;SDS011;13440;50.860;13.662;2023-03-03T06:26:15;100.53;;;38.47;;
25163;SDS011;13440;50.860;13.662;2023-03-03T06:28:40;95.68;;;37.80;;
25163;SDS011;13440;50.860;13.662;2023-03-03T06:31:06;88.60;;;36.70;;
25163;SDS011;13440;50.860;13.662;2023-03-03T06:33:31;94.83;;;38.97;;
25163;SDS011;13440;50.860;13.662;2023-03-03T06:35:56;96.75;;;37.90;;
25163;SDS011;13440;50.860;13.662;2023-03-03T06:38:22;83.07;;;33.65;;
25163;SDS011;13440;50.860;13.662;2023-03-03T06:40:48;88.25;;;35.90;;
25163;SDS011;13440;50.860;13.662;2023-03-03T06:43:13;87.97;;;37.28;;
25163;SDS011;13440;50.860;13.662;2023-03-03T06:45:38;86.97;;;37.33;;
25163;SDS011;13440;50.860;13.662;2023-03-03T06:48:04;79.78;;;35.20;;
25163;SDS011;13440;50.860;13.662;2023-03-03T06:50:29;83.97;;;34.63;;
25163;SDS011;13440;50.860;13.662;2023-03-03T06:53:00;79.22;;;34.92;;
25163;SDS011;13440;50.860;13.662;2023-03-03T06:55:26;77.13;;;33.72;;
25163;SDS011;13440;50.860;13.662;2023-03-03T06:57:51;70.38;;;32.60;;
25163;SDS011;13440;50.860;13.662;2023-03-03T07:03:03;79.82;;;34.15;;
25163;SDS011;13440;50.860;13.662;2023-03-03T07:05:30;73.32;;;33.22;;
25163;SDS011;13440;50.860;13.662;2023-03-03T07:07:57;69.18;;;32.88;;
25163;SDS011;13440;50.860;13.662;2023-03-03T07:10:28;65.55;;;32.08;;
25163;SDS011;13440;50.860;13.662;2023-03-03T07:12:55;69.45;;;33.28;;
25163;SDS011;13440;50.860;13.662;2023-03-03T07:15:23;71.60;;;34.28;;
25163;SDS011;13440;50.860;13.662;2023-03-03T07:17:51;69.47;;;33.13;;
25163;SDS011;13440;50.860;13.662;2023-03-03T07:20:18;65.75;;;31.88;;
25163;SDS011;13440;50.860;13.662;2023-03-03T07:22:43;64.97;;;31.65;;
25163;SDS011;13440;50.860;13.662;2023-03-03T07:25:18;62.05;;;31.45;;
25163;SDS011;13440;50.860;13.662;2023-03-03T07:27:43;63.75;;;30.70;;
25163;SDS011;13440;50.860;13.662;2023-03-03T07:32:37;69.53;;;34.15;;
25163;SDS011;13440;50.860;13.662;2023-03-03T07:35:07;68.28;;;31.65;;
25163;SDS011;13440;50.860;13.662;2023-03-03T07:37:43;65.45;;;32.83;;
25163;SDS011;13440;50.860;13.662;2023-03-03T07:42:53;63.00;;;31.00;;
25163;SDS011;13440;50.860;13.662;2023-03-03T07:48:00;65.35;;;31.98;;
25163;SDS011;13440;50.860;13.662;2023-03-03T07:50:28;65.32;;;31.33;;
25163;SDS011;13440;50.860;13.662;2023-03-03T07:52:54;62.08;;;31.25;;
25163;SDS011;13440;50.860;13.662;2023-03-03T07:57:55;55.42;;;29.05;;
25163;SDS011;13440;50.860;13.662;2023-03-03T08:03:04;53.88;;;28.65;;
25163;SDS011;13440;50.860;13.662;2023-03-03T08:05:39;55.65;;;29.17;;
25163;SDS011;13440;50.860;13.662;2023-03-03T08:10:35;246.38;;;120.55;;
25163;SDS011;13440;50.860;13.662;2023-03-03T08:13:37;50.45;;;26.95;;
25163;SDS011;13440;50.860;13.662;2023-03-03T08:18:33;46.03;;;26.00;;
25163;SDS011;13440;50.860;13.662;2023-03-03T08:21:00;49.67;;;26.13;;
25163;SDS011;13440;50.860;13.662;2023-03-03T08:23:26;52.13;;;27.35;;
25163;SDS011;13440;50.860;13.662;2023-03-03T08:25:52;48.40;;;25.67;;
25163;SDS011;13440;50.860;13.662;2023-03-03T08:28:17;50.85;;;26.85;;
25163;SDS011;13440;50.860;13.662;2023-03-03T08:30:43;51.65;;;28.83;;
25163;SDS011;13440;50.860;13.662;2023-03-03T08:33:09;54.00;;;28.05;;
25163;SDS011;13440;50.860;13.662;2023-03-03T08:35:34;53.53;;;27.98;;
25163;SDS011;13440;50.860;13.662;2023-03-03T08:38:00;55.78;;;29.30;;
25163;SDS011;13440;50.860;13.662;2023-03-03T08:40:25;56.35;;;28.63;;
25163;SDS011;13440;50.860;13.662;2023-03-03T08:42:51;52.38;;;28.40;;
25163;SDS011;13440;50.860;13.662;2023-03-03T08:45:16;56.10;;;29.02;;
25163;SDS011;13440;50.860;13.662;2023-03-03T08:47:41;50.72;;;27.45;;
25163;SDS011;13440;50.860;13.662;2023-03-03T08:50:08;59.58;;;29.65;;
25163;SDS011;13440;50.860;13.662;2023-03-03T08:52:34;54.75;;;27.90;;
25163;SDS011;13440;50.860;13.662;2023-03-03T08:54:59;48.07;;;25.43;;
25163;SDS011;13440;50.860;13.662;2023-03-03T08:57:24;53.50;;;27.90;;
25163;SDS011;13440;50.860;13.662;2023-03-03T08:59:49;49.42;;;25.38;;
25163;SDS011;13440;50.860;13.662;2023-03-03T09:02:15;51.90;;;27.13;;
25163;SDS011;13440;50.860;13.662;2023-03-03T09:04:41;47.60;;;25.23;;
25163;SDS011;13440;50.860;13.662;2023-03-03T09:07:07;48.13;;;25.17;;
25163;SDS011;13440;50.860;13.662;2023-03-03T09:09:32;48.33;;;26.83;;
25163;SDS011;13440;50.860;13.662;2023-03-03T09:11:58;53.50;;;26.45;;
25163;SDS011;13440;50.860;13.662;2023-03-03T09:14:26;54.03;;;26.38;;
25163;SDS011;13440;50.860;13.662;2023-03-03T09:16:52;58.60;;;27.45;;
25163;SDS011;13440;50.860;13.662;2023-03-03T09:19:23;58.78;;;27.95;;
25163;SDS011;13440;50.860;13.662;2023-03-03T09:21:52;53.42;;;27.17;;
25163;SDS011;13440;50.860;13.662;2023-03-03T09:24:28;57.65;;;28.30;;
25163;SDS011;13440;50.860;13.662;2023-03-03T09:26:54;53.17;;;27.52;;
25163;SDS011;13440;50.860;13.662;2023-03-03T09:29:24;54.38;;;27.70;;
25163;SDS011;13440;50.860;13.662;2023-03-03T09:31:51;46.08;;;23.73;;
25163;SDS011;13440;50.860;13.662;2023-03-03T09:34:20;50.80;;;24.05;;
25163;SDS011;13440;50.860;13.662;2023-03-03T09:36:46;39.40;;;21.58;;
25163;SDS011;13440;50.860;13.662;2023-03-03T09:39:17;32.05;;;17.30;;
25163;SDS011;13440;50.860;13.662;2023-03-03T09:44:46;36.45;;;17.30;;
25163;SDS011;13440;50.860;13.662;2023-03-03T09:52:26;38.28;;;21.10;;
25163;SDS011;13440;50.860;13.662;2023-03-03T09:57:28;36.67;;;20.50;;
25163;SDS011;13440;50.860;13.662;2023-03-03T10:07:41;40.03;;;20.70;;
25163;SDS011;13440;50.860;13.662;2023-03-03T10:13:11;45.20;;;21.73;;
25163;SDS011;13440;50.860;13.662;2023-03-03T10:23:46;43.38;;;21.65;;
25163;SDS011;13440;50.860;13.662;2023-03-03T10:28:56;42.20;;;20.10;;
25163;SDS011;13440;50.860;13.662;2023-03-03T10:31:32;36.75;;;19.17;;
25163;SDS011;13440;50.860;13.662;2023-03-03T10:36:38;35.97;;;19.03;;
25163;SDS011;13440;50.860;13.662;2023-03-03T10:39:18;38.20;;;19.60;;
25163;SDS011;13440;50.860;13.662;2023-03-03T10:41:52;38.90;;;19.30;;
25163;SDS011;13440;50.860;13.662;2023-03-03T10:49:48;37.58;;;19.45;;
25163;SDS011;13440;50.860;13.662;2023-03-03T10:52:18;33.97;;;18.20;;
25163;SDS011;13440;50.860;13.662;2023-03-03T11:03:15;32.10;;;16.92;;
25163;SDS011;13440;50.860;13.662;2023-03-03T11:05:32;31.77;;;17.52;;
25163;SDS011;13440;50.860;13.662;2023-03-03T11:11:13;32.10;;;17.35;;
25163;SDS011;13440;50.860;13.662;2023-03-03T11:13:55;36.70;;;17.00;;
25163;SDS011;13440;50.860;13.662;2023-03-03T11:24:34;25.90;;;15.18;;
25163;SDS011;13440;50.860;13.662;2023-03-03T11:27:24;27.00;;;15.23;;
25163;SDS011;13440;50.860;13.662;2023-03-03T11:30:00;28.73;;;14.82;;
25163;SDS011;13440;50.860;13.662;2023-03-03T11:37:51;30.48;;;16.20;;
25163;SDS011;13440;50.860;13.662;2023-03-03T11:40:23;38.60;;;19.45;;
25163;SDS011;13440;50.860;13.662;2023-03-03T11:45:21;37.55;;;20.25;;
25163;SDS011;13440;50.860;13.662;2023-03-03T11:47:57;34.92;;;19.58;;
25163;SDS011;13440;50.860;13.662;2023-03-03T11:50:47;36.70;;;19.83;;
25163;SDS011;13440;50.860;13.662;2023-03-03T11:53:20;37.45;;;20.42;;
25163;SDS011;13440;50.860;13.662;2023-03-03T11:55:48;34.92;;;18.92;;
25163;SDS011;13440;50.860;13.662;2023-03-03T11:58:21;33.05;;;17.52;;
25163;SDS011;13440;50.860;13.662;2023-03-03T12:00:48;29.13;;;15.55;;
25163;SDS011;13440;50.860;13.662;2023-03-03T12:05:53;27.98;;;15.25;;
25163;SDS011;13440;50.860;13.662;2023-03-03T12:08:31;32.05;;;17.85;;
25163;SDS011;13440;50.860;13.662;2023-03-03T12:11:02;27.08;;;15.48;;
25163;SDS011;13440;50.860;13.662;2023-03-03T12:18:45;27.13;;;15.68;;
25163;SDS011;13440;50.860;13.662;2023-03-03T12:28:57;31.23;;;16.67;;
25163;SDS011;13440;50.860;13.662;2023-03-03T12:34:31;21.80;;;12.95;;
25163;SDS011;13440;50.860;13.662;2023-03-03T12:39:34;23.25;;;12.50;;
25163;SDS011;13440;50.860;13.662;2023-03-03T12:45:05;21.90;;;12.18;;
25163;SDS011;13440;50.860;13.662;2023-03-03T12:47:37;21.85;;;11.70;;
25163;SDS011;13440;50.860;13.662;2023-03-03T12:50:21;21.80;;;12.68;;
25163;SDS011;13440;50.860;13.662;2023-03-03T13:01:06;24.83;;;13.70;;
25163;SDS011;13440;50.860;13.662;2023-03-03T13:06:14;16.40;;;10.10;;
25163;SDS011;13440;50.860;13.662;2023-03-03T13:08:47;15.52;;;9.85;;
25163;SDS011;13440;50.860;13.662;2023-03-03T13:11:26;17.30;;;10.30;;
25163;SDS011;13440;50.860;13.662;2023-03-03T13:16:26;19.27;;;11.38;;
25163;SDS011;13440;50.860;13.662;2023-03-03T13:19:00;14.48;;;8.82;;
25163;SDS011;13440;50.860;13.662;2023-03-03T13:21:33;16.25;;;9.38;;
25163;SDS011;13440;50.860;13.662;2023-03-03T13:24:12;12.68;;;8.13;;
25163;SDS011;13440;50.860;13.662;2023-03-03T13:26:41;14.88;;;8.88;;
25163;SDS011;13440;50.860;13.662;2023-03-03T13:31:33;13.67;;;8.13;;
25163;SDS011;13440;50.860;13.662;2023-03-03T13:33:59;15.27;;;8.93;;
25163;SDS011;13440;50.860;13.662;2023-03-03T13:36:30;14.45;;;8.50;;
25163;SDS011;13440;50.860;13.662;2023-03-03T13:38:59;20.35;;;10.02;;
25163;SDS011;13440;50.860;13.662;2023-03-03T13:41:31;15.07;;;9.07;;
25163;SDS011;13440;50.860;13.662;2023-03-03T13:44:00;15.98;;;8.40;;
25163;SDS011;13440;50.860;13.662;2023-03-03T13:48:56;14.15;;;8.77;;
25163;SDS011;13440;50.860;13.662;2023-03-03T13:51:38;16.88;;;9.88;;
25163;SDS011;13440;50.860;13.662;2023-03-03T13:56:34;14.85;;;9.27;;
25163;SDS011;13440;50.860;13.662;2023-03-03T13:59:05;13.95;;;8.90;;
25163;SDS011;13440;50.860;13.662;2023-03-03T14:01:52;24.50;;;10.38;;
25163;SDS011;13440;50.860;13.662;2023-03-03T14:07:06;26.98;;;18.10;;
25163;SDS011;13440;50.860;13.662;2023-03-03T14:09:39;21.27;;;12.68;;
25163;SDS011;13440;50.860;13.662;2023-03-03T14:12:19;20.27;;;10.55;;
25163;SDS011;13440;50.860;13.662;2023-03-03T14:14:49;13.23;;;7.60;;
25163;SDS011;13440;50.860;13.662;2023-03-03T14:19:47;17.60;;;10.68;;
25163;SDS011;13440;50.860;13.662;2023-03-03T14:28:12;17.58;;;10.07;;
25163;SDS011;13440;50.860;13.662;2023-03-03T14:32:59;19.15;;;11.35;;
25163;SDS011;13440;50.860;13.662;2023-03-03T14:35:28;17.90;;;10.95;;
25163;SDS011;13440;50.860;13.662;2023-03-03T14:37:53;17.10;;;10.02;;
25163;SDS011;13440;50.860;13.662;2023-03-03T14:40:31;18.40;;;11.35;;
25163;SDS011;13440;50.860;13.662;2023-03-03T14:42:58;20.27;;;12.27;;
25163;SDS011;13440;50.860;13.662;2023-03-03T14:45:33;19.08;;;12.02;;
25163;SDS011;13440;50.860;13.662;2023-03-03T14:48:05;18.45;;;11.10;;
25163;SDS011;13440;50.860;13.662;2023-03-03T14:50:35;18.38;;;11.10;;
25163;SDS011;13440;50.860;13.662;2023-03-03T14:53:11;20.42;;;12.52;;
25163;SDS011;13440;50.860;13.662;2023-03-03T14:55:38;18.65;;;11.13;;
25163;SDS011;13440;50.860;13.662;2023-03-03T14:58:07;19.75;;;10.80;;
25163;SDS011;13440;50.860;13.662;2023-03-03T15:00:47;16.95;;;9.63;;
25163;SDS011;13440;50.860;13.662;2023-03-03T15:05:50;17.35;;;10.30;;
25163;SDS011;13440;50.860;13.662;2023-03-03T15:08:21;19.27;;;10.18;;
25163;SDS011;13440;50.860;13.662;2023-03-03T15:10:47;16.13;;;9.45;;
25163;SDS011;13440;50.860;13.662;2023-03-03T15:15:48;18.63;;;10.40;;
25163;SDS011;13440;50.860;13.662;2023-03-03T15:18:15;19.52;;;10.93;;
25163;SDS011;13440;50.860;13.662;2023-03-03T15:30:38;24.47;;;13.73;;
25163;SDS011;13440;50.860;13.662;2023-03-03T15:33:10;21.95;;;12.57;;
25163;SDS011;13440;50.860;13.662;2023-03-03T15:41:21;23.90;;;13.63;;
25163;SDS011;13440;50.860;13.662;2023-03-03T15:43:35;24.75;;;14.50;;
25163;SDS011;13440;50.860;13.662;2023-03-03T15:51:59;28.88;;;15.70;;
25163;SDS011;13440;50.860;13.662;2023-03-03T15:54:33;40.00;;;20.15;;
25163;SDS011;13440;50.860;13.662;2023-03-03T15:57:01;26.65;;;13.70;;
25163;SDS011;13440;50.860;13.662;2023-03-03T15:59:32;24.02;;;13.15;;
25163;SDS011;13440;50.860;13.662;2023-03-03T16:02:17;20.33;;;12.30;;
25163;SDS011;13440;50.860;13.662;2023-03-03T16:07:26;18.98;;;11.48;;
25163;SDS011;13440;50.860;13.662;2023-03-03T16:10:01;18.88;;;11.38;;
25163;SDS011;13440;50.860;13.662;2023-03-03T16:18:04;17.93;;;10.10;;
25163;SDS011;13440;50.860;13.662;2023-03-03T16:20:37;18.23;;;11.75;;
25163;SDS011;13440;50.860;13.662;2023-03-03T16:23:19;19.48;;;11.52;;
25163;SDS011;13440;50.860;13.662;2023-03-03T16:25:57;19.23;;;11.77;;
25163;SDS011;13440;50.860;13.662;2023-03-03T16:28:26;21.20;;;11.85;;
25163;SDS011;13440;50.860;13.662;2023-03-03T16:33:22;22.77;;;13.60;;
25163;SDS011;13440;50.860;13.662;2023-03-03T16:35:59;20.20;;;11.95;;
25163;SDS011;13440;50.860;13.662;2023-03-03T16:38:28;19.88;;;11.38;;
25163;SDS011;13440;50.860;13.662;2023-03-03T16:40:56;20.27;;;10.43;;
25163;SDS011;13440;50.860;13.662;2023-03-03T16:48:55;17.47;;;9.53;;
25163;SDS011;13440;50.860;13.662;2023-03-03T16:51:27;22.15;;;12.48;;
25163;SDS011;13440;50.860;13.662;2023-03-03T16:54:08;25.35;;;14.38;;
25163;SDS011;13440;50.860;13.662;2023-03-03T16:56:37;23.27;;;13.43;;
25163;SDS011;13440;50.860;13.662;2023-03-03T17:04:06;32.13;;;18.17;;
25163;SDS011;13440;50.860;13.662;2023-03-03T17:06:39;43.15;;;18.60;;
25163;SDS011;13440;50.860;13.662;2023-03-03T17:09:22;30.80;;;17.63;;
25163;SDS011;13440;50.860;13.662;2023-03-03T17:14:43;32.10;;;18.83;;
25163;SDS011;13440;50.860;13.662;2023-03-03T17:17:17;39.15;;;20.52;;
25163;SDS011;13440;50.860;13.662;2023-03-03T17:22:24;34.97;;;19.43;;
25163;SDS011;13440;50.860;13.662;2023-03-03T17:29:55;38.65;;;21.02;;
25163;SDS011;13440;50.860;13.662;2023-03-03T17:32:34;37.28;;;20.55;;
25163;SDS011;13440;50.860;13.662;2023-03-03T17:38:18;40.63;;;21.27;;
25163;SDS011;13440;50.860;13.662;2023-03-03T17:40:29;41.47;;;21.65;;
25163;SDS011;13440;50.860;13.662;2023-03-03T17:42:58;41.78;;;21.90;;
25163;SDS011;13440;50.860;13.662;2023-03-03T17:45:28;43.60;;;21.80;;
25163;SDS011;13440;50.860;13.662;2023-03-03T17:55:30;49.35;;;23.73;;
25163;SDS011;13440;50.860;13.662;2023-03-03T18:06:26;44.20;;;22.40;;
25163;SDS011;13440;50.860;13.662;2023-03-03T18:14:18;47.42;;;22.48;;
25163;SDS011;13440;50.860;13.662;2023-03-03T18:16:50;49.20;;;23.58;;